Terminal Aerodrome Forecast
Issued by NWS Charleston, WV

Current Version | Previous Version | Graphics & Text | Print | Product List | Glossary On
Versions: 1 2 3 4 5 6 7 8 9 10 11 12 13 14 15 16 17 18 19 20 21 22 23 24 25 26 27 28 29 30
000
FTUS41 KRLX 290537
TAFEKN
TAF
KEKN 290537Z 2906/3006 00000KT 5SM -SHRA BR OVC035
      TEMPO 2906/2908 6SM BR BKN005
     FM290900 00000KT 1/2SM FG OVC001
      TEMPO 2909/2913 2SM BR SCT002 BKN005
     FM291300 00000KT 4SM BR BKN003
     FM291500 VRB03KT 6SM BR BKN015
     FM291700 30004KT P6SM BKN050
     FM300000 00000KT P6SM BKN040
     FM300100 00000KT 4SM BR BKN040
     FM300500 00000KT 1SM BR BKN001=

USA.gov is the U.S. government's official web portal to all federal, state and local government web resources and services.